Time;durP1;ratioP1;P1;durP2;ratioP2;P2;SDS_P1;SDS_P2;PMS_P1;PMS_P2;Temp;Humidity;BMP_temperature;BMP_pressure;BME280_temperature;BME280_humidity;BME280_pressure;Samples;Min_cycle;Max_cycle;Signal;HPM_P1;HPM_P2
2022/05/09 00:00:28;;;;;;;8.20;5.20;;;15.80;99.90;;;;;;5130256;27;20456;-79
2022/05/09 00:03:19;;;;;;;9.05;5.68;;;15.80;99.90;;;;;;5130503;27;20054;-79
2022/05/09 00:05:53;;;;;;;7.85;4.82;;;15.90;99.90;;;;;;5124050;27;20039;-78
2022/05/09 00:08:32;;;;;;;10.40;5.65;;;15.10;99.90;;;;;;5133288;27;20039;-79
2022/05/09 00:11:08;;;;;;;9.57;5.72;;;15.70;99.90;;;;;;5131785;27;20051;-78
2022/05/09 00:13:58;;;;;;;11.15;5.55;;;15.70;99.90;;;;;;5131720;27;20050;-78
2022/05/09 00:16:33;;;;;;;11.93;5.65;;;15.70;99.90;;;;;;5130051;27;20361;-79
2022/05/09 00:19:08;;;;;;;8.82;5.93;;;15.60;99.90;;;;;;5150977;27;20038;-79
2022/05/09 00:21:53;;;;;;;9.88;5.70;;;15.60;99.90;;;;;;5141982;27;20104;-78
2022/05/09 00:24:27;;;;;;;8.38;5.47;;;15.60;99.90;;;;;;5147066;27;20049;-78
2022/05/09 00:26:57;;;;;;;8.98;5.90;;;15.70;99.90;;;;;;5144660;27;21034;-79
2022/05/09 00:29:33;;;;;;;11.07;6.55;;;15.60;99.90;;;;;;5121049;27;20531;-79
2022/05/09 00:32:05;;;;;;;10.60;6.72;;;15.60;99.90;;;;;;5124315;27;20066;-77
2022/05/09 00:34:44;;;;;;;8.65;4.78;;;15.50;99.90;;;;;;5126626;27;20043;-79
2022/05/09 00:37:20;;;;;;;11.45;5.93;;;15.50;99.90;;;;;;5120111;27;20042;-78
2022/05/09 00:39:52;;;;;;;11.75;7.07;;;15.80;99.90;;;;;;5129151;27;20036;-78
2022/05/09 00:42:34;;;;;;;8.98;5.72;;;15.50;99.90;;;;;;5126184;27;20069;-78
2022/05/09 00:45:01;;;;;;;9.85;5.38;;;15.00;99.90;;;;;;5120234;27;20050;-78
2022/05/09 00:47:43;;;;;;;11.30;6.43;;;15.40;99.90;;;;;;5125049;27;20155;-78
2022/05/09 00:50:26;;;;;;;10.50;6.32;;;15.30;99.90;;;;;;5126723;27;20063;-78
2022/05/09 00:53:09;;;;;;;8.48;5.30;;;15.00;99.90;;;;;;5118135;27;20134;-79
2022/05/09 00:56:23;;;;;;;8.13;5.15;;;15.30;99.90;;;;;;5123801;27;20085;-79
2022/05/09 00:58:59;;;;;;;9.95;5.68;;;15.30;99.90;;;;;;5124827;27;20047;-78
2022/05/09 01:01:34;;;;;;;12.65;5.78;;;15.70;99.90;;;;;;5121724;27;20039;-78
2022/05/09 01:04:24;;;;;;;10.80;6.00;;;15.40;99.90;;;;;;5093937;27;20098;-79
2022/05/09 01:07:14;;;;;;;11.80;6.75;;;15.70;99.90;;;;;;5095526;27;20050;-79
2022/05/09 01:09:42;;;;;;;10.32;6.07;;;15.10;99.90;;;;;;5095960;27;20040;-79
2022/05/09 01:12:21;;;;;;;9.23;5.43;;;15.40;99.90;;;;;;5094095;27;20044;-79
2022/05/09 01:15:19;;;;;;;11.73;5.90;;;15.10;99.90;;;;;;5092072;27;20053;-78
2022/05/09 01:17:52;;;;;;;11.88;7.57;;;15.00;99.90;;;;;;5097585;27;20085;-79
2022/05/09 01:20:41;;;;;;;10.50;5.53;;;15.00;99.90;;;;;;5080511;27;20784;-78
2022/05/09 01:23:11;;;;;;;9.35;6.03;;;15.00;99.90;;;;;;5081832;27;20032;-78
2022/05/09 01:26:02;;;;;;;10.07;6.53;;;14.90;99.90;;;;;;5099702;27;20541;-79
2022/05/09 01:28:43;;;;;;;13.15;6.30;;;14.50;99.90;;;;;;5091562;27;20066;-79
2022/05/09 01:31:21;;;;;;;10.73;6.15;;;14.90;99.90;;;;;;5082020;27;20052;-79
2022/05/09 01:33:57;;;;;;;11.55;7.45;;;14.90;99.90;;;;;;5100318;27;20624;-79
2022/05/09 01:36:46;;;;;;;10.55;6.35;;;14.90;99.90;;;;;;5129835;27;21655;-79
2022/05/09 01:39:17;;;;;;;9.77;6.22;;;14.80;99.90;;;;;;5141874;27;20048;-78
2022/05/09 01:42:01;;;;;;;13.18;7.32;;;14.80;99.90;;;;;;5132351;27;20839;-79
2022/05/09 01:44:33;;;;;;;9.98;6.32;;;14.80;99.90;;;;;;5131688;27;20043;-79
2022/05/09 01:50:17;;;;;;;10.40;6.03;;;14.80;99.90;;;;;;5129877;27;20047;-79
2022/05/09 01:52:58;;;;;;;9.48;5.60;;;14.70;99.90;;;;;;5123386;27;20115;-78
2022/05/09 01:55:34;;;;;;;12.27;7.00;;;14.70;99.90;;;;;;5121223;27;20055;-78
2022/05/09 01:58:29;;;;;;;12.57;7.10;;;14.70;99.90;;;;;;5130010;27;20043;-79
2022/05/09 02:01:15;;;;;;;9.30;5.68;;;14.70;99.90;;;;;;5124203;27;20096;-77
2022/05/09 02:03:55;;;;;;;15.90;7.35;;;14.60;99.90;;;;;;5131334;27;20051;-78
2022/05/09 02:06:33;;;;;;;12.07;6.38;;;14.70;99.90;;;;;;5127033;27;20047;-78
2022/05/09 02:09:10;;;;;;;12.23;6.68;;;14.60;99.90;;;;;;5122279;27;20508;-78
2022/05/09 02:11:48;;;;;;;13.27;6.43;;;14.60;99.90;;;;;;5129320;27;20050;-78
2022/05/09 02:14:21;;;;;;;10.77;6.97;;;14.90;99.90;;;;;;5130476;27;20035;-78
2022/05/09 02:16:50;;;;;;;9.80;6.53;;;14.90;99.90;;;;;;5123503;27;20486;-78
2022/05/09 02:19:21;;;;;;;11.50;7.47;;;14.20;99.90;;;;;;5129086;27;20031;-78
2022/05/09 02:21:50;;;;;;;11.38;7.20;;;14.50;99.90;;;;;;5131505;27;20562;-78
2022/05/09 02:24:19;;;;;;;11.02;6.30;;;14.50;99.90;;;;;;5129324;27;20051;-78
2022/05/09 02:27:11;;;;;;;;;;;;;;;;;;;;;
2022/05/09 02:30:11;;;;;;;11.07;7.47;;;14.50;99.90;;;;;;5128449;27;41223;-79
2022/05/09 02:32:49;;;;;;;13.18;6.60;;;14.40;99.90;;;;;;5131049;27;20050;-79
2022/05/09 02:35:21;;;;;;;13.30;8.05;;;14.30;99.90;;;;;;5131144;27;20043;-79
2022/05/09 02:38:09;;;;;;;13.27;7.55;;;14.80;99.90;;;;;;5142294;27;20096;-79
2022/05/09 02:43:56;;;;;;;13.57;7.47;;;14.10;99.90;;;;;;5151456;27;20492;-79
2022/05/09 02:46:27;;;;;;;14.65;7.22;;;13.90;99.90;;;;;;5126900;27;20112;-79
2022/05/09 02:49:04;;;;;;;10.15;6.35;;;14.90;99.90;;;;;;5131329;27;20068;-80
2022/05/09 02:51:39;;;;;;;11.98;7.50;;;14.20;99.90;;;;;;5153570;27;20042;-79
2022/05/09 02:54:23;;;;;;;11.00;7.05;;;13.90;99.90;;;;;;5134488;27;20065;-80
2022/05/09 02:56:57;;;;;;;10.68;7.25;;;14.10;99.90;;;;;;5130672;27;21238;-79
2022/05/09 02:59:34;;;;;;;11.82;6.63;;;14.10;99.90;;;;;;5132470;27;20525;-79
2022/05/09 03:02:09;;;;;;;14.30;7.72;;;14.10;99.90;;;;;;5144251;27;20051;-80
2022/05/09 03:04:49;;;;;;;12.13;6.18;;;14.00;99.90;;;;;;5143087;27;20451;-79
2022/05/09 03:07:20;;;;;;;8.88;5.97;;;13.80;99.90;;;;;;5129305;27;20055;-80
2022/05/09 03:10:00;;;;;;;13.18;6.18;;;14.00;99.90;;;;;;5134453;27;20041;-79
2022/05/09 03:12:49;;;;;;;9.52;6.38;;;14.10;99.90;;;;;;5130763;27;20545;-79
2022/05/09 03:15:24;;;;;;;12.10;7.13;;;14.00;99.90;;;;;;5117866;27;20562;-79
2022/05/09 03:18:06;;;;;;;10.23;6.25;;;14.00;99.90;;;;;;5140807;27;20046;-79
2022/05/09 03:20:51;;;;;;;;;;;;;;;;;;;;;
2022/05/09 03:23:32;;;;;;;10.85;6.90;;;14.00;99.90;;;;;;5150042;27;39132;-79
2022/05/09 03:26:06;;;;;;;13.07;6.78;;;13.80;99.90;;;;;;5127083;27;20043;-80
2022/05/09 03:28:43;;;;;;;8.25;6.10;;;13.90;99.90;;;;;;5133895;27;20053;-79
2022/05/09 03:31:35;;;;;;;;;;;;;;;;;;;;;
2022/05/09 03:34:14;;;;;;;9.77;5.88;;;13.90;99.90;;;;;;5127804;27;39353;-79
2022/05/09 03:36:54;;;;;;;10.32;6.20;;;13.90;99.90;;;;;;5119130;27;20055;-79
2022/05/09 03:39:33;;;;;;;10.93;5.75;;;13.90;99.90;;;;;;5130637;27;20347;-79
2022/05/09 03:42:08;;;;;;;10.13;6.22;;;13.90;99.90;;;;;;5119454;27;20484;-79
2022/05/09 03:44:58;;;;;;;11.65;5.93;;;13.90;99.90;;;;;;5126702;27;20054;-79
2022/05/09 03:47:35;;;;;;;9.23;5.88;;;13.90;99.90;;;;;;5127557;27;20041;-79
2022/05/09 03:50:17;;;;;;;11.25;5.53;;;13.90;99.90;;;;;;5125798;27;20051;-80
2022/05/09 03:55:34;;;;;;;11.52;5.28;;;13.80;99.90;;;;;;5125208;27;20043;-79
2022/05/09 03:58:18;;;;;;;9.20;5.40;;;13.80;99.90;;;;;;5128681;27;20276;-79
2022/05/09 04:01:11;;;;;;;9.07;5.25;;;13.80;99.90;;;;;;5127158;27;20073;-79
2022/05/09 04:03:37;;;;;;;10.35;6.13;;;13.70;99.90;;;;;;5142621;27;20055;-80
2022/05/09 04:06:24;;;;;;;8.93;5.63;;;13.70;99.90;;;;;;5125728;27;20058;-79
2022/05/09 04:09:02;;;;;;;9.10;5.72;;;13.60;99.90;;;;;;5119362;27;20307;-79
2022/05/09 04:11:50;;;;;;;7.30;4.97;;;13.20;99.90;;;;;;5127212;27;20043;-79
2022/05/09 04:17:33;;;;;;;;;;;;;;;;;;;;;
2022/05/09 04:20:18;;;;;;;11.60;5.97;;;13.60;99.90;;;;;;5127296;27;43328;-78
2022/05/09 04:22:51;;;;;;;9.02;5.57;;;13.90;99.90;;;;;;5116222;27;20043;-79
2022/05/09 04:25:22;;;;;;;9.18;5.60;;;13.60;99.90;;;;;;5140946;27;20047;-79
2022/05/09 04:28:04;;;;;;;9.68;4.80;;;13.60;99.90;;;;;;5137219;27;20043;-79
2022/05/09 04:31:08;;;;;;;9.18;4.82;;;13.60;99.90;;;;;;5121002;27;20059;-81
2022/05/09 04:34:00;;;;;;;10.20;5.22;;;13.70;99.90;;;;;;5127660;27;20078;-86
2022/05/09 04:36:38;;;;;;;8.60;4.90;;;13.60;99.90;;;;;;5108803;27;20562;-78
2022/05/09 04:39:21;;;;;;;8.98;5.22;;;13.50;99.90;;;;;;5069357;28;20701;-77
2022/05/09 04:41:51;;;;;;;10.35;5.95;;;13.50;99.90;;;;;;5057012;28;20083;-77
2022/05/09 04:44:22;;;;;;;10.50;5.32;;;13.30;99.90;;;;;;5078190;28;20057;-77
2022/05/09 04:46:58;;;;;;;10.25;4.97;;;13.50;99.90;;;;;;5073729;28;20127;-78
2022/05/09 04:49:42;;;;;;;8.70;5.55;;;13.50;99.90;;;;;;5084543;28;20664;-77
2022/05/09 04:55:03;;;;;;;9.05;5.63;;;13.60;99.90;;;;;;5074743;28;20044;-78
2022/05/09 04:57:35;;;;;;;9.73;5.03;;;13.30;99.90;;;;;;5076844;28;20049;-78
2022/05/09 05:00:11;;;;;;;8.15;5.03;;;13.60;99.90;;;;;;5053875;28;20057;-78
2022/05/09 05:02:46;;;;;;;12.02;5.40;;;13.50;99.90;;;;;;5062487;28;20048;-78
2022/05/09 05:05:17;;;;;;;8.45;4.28;;;13.50;99.90;;;;;;5080677;28;20060;-78
2022/05/09 05:08:00;;;;;;;8.98;5.43;;;13.50;99.90;;;;;;5063223;28;20512;-82
2022/05/09 05:10:34;;;;;;;9.05;5.63;;;13.50;99.90;;;;;;5118106;27;20121;-78
2022/05/09 05:13:29;;;;;;;9.93;4.80;;;13.50;99.90;;;;;;5122946;27;20601;-79
2022/05/09 05:15:59;;;;;;;11.38;4.68;;;13.50;99.90;;;;;;5097831;27;20047;-79
2022/05/09 05:18:32;;;;;;;9.68;5.03;;;13.10;99.90;;;;;;5108467;27;20050;-79
2022/05/09 05:21:14;;;;;;;5.88;4.03;;;13.50;99.90;;;;;;5116152;27;20039;-82
2022/05/09 05:24:01;;;;;;;6.95;4.90;;;13.50;99.90;;;;;;5133481;27;20728;-82
2022/05/09 05:26:48;;;;;;;7.65;5.05;;;13.90;99.90;;;;;;5124952;27;20621;-86
2022/05/09 05:29:26;;;;;;;8.45;4.88;;;13.50;99.90;;;;;;5106893;27;20070;-82
2022/05/09 05:32:19;;;;;;;9.80;4.85;;;13.30;99.90;;;;;;5113481;27;20298;-82
2022/05/09 05:34:56;;;;;;;9.50;5.57;;;13.60;99.90;;;;;;5095407;27;20077;-79
2022/05/09 05:37:33;;;;;;;8.45;4.95;;;13.60;99.90;;;;;;5136390;27;20119;-79
2022/05/09 05:40:13;;;;;;;8.93;5.07;;;13.60;99.90;;;;;;5128740;27;20039;-80
2022/05/09 05:42:47;;;;;;;9.23;4.25;;;13.60;99.90;;;;;;5128863;27;20114;-80
2022/05/09 05:45:38;;;;;;;10.93;5.78;;;13.50;99.90;;;;;;5144998;27;20567;-80
2022/05/09 05:48:10;;;;;;;6.63;4.53;;;13.60;99.90;;;;;;5145573;27;20070;-80
2022/05/09 05:50:39;;;;;;;11.75;5.43;;;13.60;99.90;;;;;;5122202;27;20109;-80
2022/05/09 05:53:05;;;;;;;6.57;4.00;;;13.60;99.90;;;;;;5110870;27;20094;-79
2022/05/09 05:55:38;;;;;;;6.97;4.07;;;13.50;99.90;;;;;;5127598;27;20047;-79
2022/05/09 05:58:04;;;;;;;9.13;4.47;;;13.70;99.90;;;;;;5109589;27;20115;-80
2022/05/09 06:00:31;;;;;;;8.20;4.15;;;13.60;99.90;;;;;;5109687;27;20062;-80
2022/05/09 06:02:59;;;;;;;9.85;5.43;;;13.70;99.90;;;;;;5111280;27;20590;-80
2022/05/09 06:05:28;;;;;;;9.27;4.80;;;13.40;99.90;;;;;;5107383;27;20077;-79
2022/05/09 06:08:03;;;;;;;12.73;4.72;;;13.70;99.90;;;;;;5094136;27;20058;-80
2022/05/09 06:10:32;;;;;;;10.85;5.15;;;13.70;99.90;;;;;;5104940;27;20055;-80
2022/05/09 06:13:21;;;;;;;8.77;5.18;;;13.40;99.90;;;;;;5108461;27;20031;-80
2022/05/09 06:16:00;;;;;;;12.63;4.90;;;13.80;99.90;;;;;;5106322;27;20039;-80
2022/05/09 06:18:46;;;;;;;10.88;5.55;;;13.80;99.90;;;;;;5106873;27;20043;-79
2022/05/09 06:21:17;;;;;;;10.95;5.30;;;13.90;99.90;;;;;;5106661;27;20135;-80
2022/05/09 06:23:56;;;;;;;8.68;5.22;;;13.90;99.90;;;;;;5107397;27;20050;-80
2022/05/09 06:26:26;;;;;;;9.68;4.72;;;14.00;99.90;;;;;;5126605;27;20039;-81
2022/05/09 06:29:06;;;;;;;9.73;5.55;;;13.90;99.90;;;;;;5107982;27;20039;-81
2022/05/09 06:31:38;;;;;;;8.00;5.53;;;14.00;99.90;;;;;;5110932;27;20383;-79
2022/05/09 06:34:11;;;;;;;7.47;4.20;;;14.00;99.90;;;;;;5133081;27;20043;-79
2022/05/09 06:36:53;;;;;;;10.38;4.75;;;13.90;99.90;;;;;;5132752;27;20075;-80
2022/05/09 06:39:24;;;;;;;9.52;4.20;;;13.50;99.90;;;;;;5126018;27;20058;-80
2022/05/09 06:41:56;;;;;;;11.27;5.35;;;14.00;99.90;;;;;;5133900;27;20118;-80
2022/05/09 06:44:49;;;;;;;14.35;5.40;;;14.00;99.90;;;;;;5140171;27;20054;-80
2022/05/09 06:47:25;;;;;;;12.55;6.05;;;14.50;99.90;;;;;;5130737;27;20058;-81
2022/05/09 06:49:53;;;;;;;12.13;5.25;;;14.10;99.90;;;;;;5131507;27;20094;-78
2022/05/09 06:55:26;;;;;;;10.95;4.60;;;14.10;99.90;;;;;;5131680;27;20031;-79
2022/05/09 06:58:01;;;;;;;14.80;5.20;;;14.20;99.90;;;;;;5131437;27;20043;-79
2022/05/09 07:00:31;;;;;;;8.07;4.30;;;14.20;99.90;;;;;;5125959;27;20051;-79
2022/05/09 07:03:19;;;;;;;8.60;3.85;;;14.30;99.90;;;;;;5129367;27;20126;-79
2022/05/09 07:05:51;;;;;;;10.82;4.93;;;14.30;99.90;;;;;;5133125;27;20042;-80
2022/05/09 07:11:28;;;;;;;9.38;4.63;;;14.40;99.90;;;;;;5119620;27;21149;-80
2022/05/09 07:14:08;;;;;;;5.85;3.65;;;14.40;99.90;;;;;;5133184;27;20577;-79
2022/05/09 07:17:02;;;;;;;10.57;4.72;;;14.40;99.90;;;;;;5132091;27;20047;-79
2022/05/09 07:19:44;;;;;;;6.45;4.65;;;14.60;99.90;;;;;;5131630;27;20482;-78
2022/05/09 07:22:23;;;;;;;12.80;5.65;;;14.50;99.90;;;;;;5132428;27;20051;-79
2022/05/09 07:28:11;;;;;;;;;;;;;;;;;;;;;
2022/05/09 07:31:14;;;;;;;6.93;4.30;;;14.70;99.90;;;;;;5131599;27;45024;-79
2022/05/09 07:33:49;;;;;;;11.18;4.95;;;15.40;99.90;;;;;;5115239;27;20537;-80
2022/05/09 07:36:33;;;;;;;12.38;4.20;;;14.70;99.90;;;;;;5110215;27;20083;-79
2022/05/09 07:39:05;;;;;;;8.85;5.00;;;14.70;99.90;;;;;;5117264;27;20045;-79
2022/05/09 07:41:48;;;;;;;;;;;;;;;;;;;;;
2022/05/09 07:44:33;;;;;;;8.55;3.80;;;15.30;99.90;;;;;;5135593;27;41876;-80
2022/05/09 07:47:06;;;;;;;7.15;4.10;;;14.30;99.90;;;;;;5110781;27;20039;-79
2022/05/09 07:49:37;;;;;;;9.00;4.35;;;14.90;99.90;;;;;;5117853;27;20051;-80
2022/05/09 07:52:08;;;;;;;8.13;4.50;;;14.90;99.90;;;;;;5116479;27;20133;-79
2022/05/09 07:54:48;;;;;;;7.70;4.82;;;15.00;99.90;;;;;;5127802;27;20050;-80
2022/05/09 07:57:28;;;;;;;7.57;4.15;;;15.00;99.90;;;;;;5135352;27;20076;-79
2022/05/09 08:00:00;;;;;;;6.72;4.55;;;15.10;99.90;;;;;;5115791;27;20050;-79
2022/05/09 08:02:41;;;;;;;11.23;5.63;;;15.10;99.90;;;;;;5114567;27;20165;-80
2022/05/09 08:05:14;;;;;;;11.38;5.13;;;15.10;99.90;;;;;;5107420;27;20053;-79
2022/05/09 08:07:43;;;;;;;9.55;4.30;;;15.20;99.90;;;;;;5114547;27;20107;-79
2022/05/09 08:10:16;;;;;;;8.45;5.10;;;15.20;99.90;;;;;;5115803;27;20054;-79
2022/05/09 08:12:46;;;;;;;6.90;4.47;;;15.20;99.90;;;;;;5108150;27;20051;-80
2022/05/09 08:15:21;;;;;;;6.57;4.80;;;15.30;99.90;;;;;;5115288;27;20517;-79
2022/05/09 08:18:01;;;;;;;11.10;5.53;;;15.30;99.90;;;;;;5132951;27;20038;-79
2022/05/09 08:20:49;;;;;;;6.38;3.95;;;15.30;99.90;;;;;;5117150;27;20160;-79
2022/05/09 08:23:41;;;;;;;6.68;4.47;;;15.30;99.90;;;;;;5133063;27;20634;-80
2022/05/09 08:26:30;;;;;;;9.93;5.07;;;15.20;99.90;;;;;;5109484;27;20050;-80
2022/05/09 08:29:07;;;;;;;7.53;4.70;;;15.50;99.90;;;;;;5109062;27;20051;-80
2022/05/09 08:31:45;;;;;;;15.43;6.70;;;15.10;99.90;;;;;;5093551;27;20051;-79
2022/05/09 08:34:34;;;;;;;6.63;4.28;;;15.60;99.90;;;;;;5130932;27;20069;-79
2022/05/09 08:37:44;;;;;;;9.52;4.30;;;15.60;99.90;;;;;;5125481;27;20047;-79
2022/05/09 08:40:20;;;;;;;11.57;4.72;;;15.60;99.90;;;;;;5125176;27;20093;-80
2022/05/09 08:43:11;;;;;;;13.15;4.85;;;15.70;99.90;;;;;;5135768;27;20522;-79
2022/05/09 08:45:57;;;;;;;9.43;5.50;;;15.70;99.90;;;;;;5134915;27;20043;-79
2022/05/09 08:49:20;;;;;;;8.63;4.90;;;15.80;99.90;;;;;;5125078;27;20043;-80
2022/05/09 08:52:32;;;;;;;16.30;6.45;;;15.90;99.90;;;;;;5044614;28;20044;-80
2022/05/09 08:58:19;;;;;;;12.00;6.00;;;16.50;99.90;;;;;;5134143;27;20043;-80
2022/05/09 09:00:52;;;;;;;11.43;6.53;;;16.00;99.90;;;;;;5125297;27;20134;-80
2022/05/09 09:03:49;;;;;;;11.93;6.00;;;15.30;99.90;;;;;;5131534;27;20039;-80
2022/05/09 09:06:37;;;;;;;14.00;6.15;;;16.10;99.90;;;;;;5134555;27;20853;-80
2022/05/09 09:09:47;;;;;;;10.40;6.43;;;16.20;99.90;;;;;;5129909;27;20052;-80
2022/05/09 09:12:47;;;;;;;11.63;6.28;;;16.20;99.90;;;;;;5134574;27;20047;-80
2022/05/09 09:15:56;;;;;;;11.88;5.95;;;16.30;99.90;;;;;;5132891;27;20093;-79
2022/05/09 09:19:05;;;;;;;12.40;5.28;;;16.40;99.90;;;;;;5124316;27;20036;-79
2022/05/09 09:21:55;;;;;;;9.25;4.38;;;16.40;99.90;;;;;;5124094;27;20051;-80
2022/05/09 09:24:59;;;;;;;8.40;4.60;;;16.40;99.90;;;;;;5133981;27;20047;-79
2022/05/09 09:27:56;;;;;;;9.75;5.03;;;16.40;99.90;;;;;;5077606;27;20564;-79
2022/05/09 09:30:41;;;;;;;10.25;5.15;;;16.30;99.90;;;;;;5125177;27;20047;-80
2022/05/09 09:33:17;;;;;;;7.40;4.68;;;16.40;99.90;;;;;;5121468;27;20139;-80
2022/05/09 09:35:56;;;;;;;8.80;4.22;;;16.50;99.90;;;;;;5106807;27;20962;-79
2022/05/09 09:38:34;;;;;;;10.13;3.97;;;16.60;99.90;;;;;;5091091;27;20055;-79
2022/05/09 09:41:35;;;;;;;7.10;3.78;;;16.40;99.90;;;;;;5091085;27;20600;-79
2022/05/09 09:44:19;;;;;;;12.55;5.32;;;16.70;99.90;;;;;;5089699;27;20056;-80
2022/05/09 09:47:23;;;;;;;7.22;4.07;;;16.80;99.90;;;;;;5106137;27;20039;-80
2022/05/09 09:50:46;;;;;;;8.68;4.28;;;16.80;99.90;;;;;;5091506;27;20056;-79
2022/05/09 09:53:28;;;;;;;;;;;16.90;99.90;;;;;;5084058;27;20122;-80
2022/05/09 09:56:27;;;;;;;8.93;4.57;;;16.90;99.90;;;;;;5128105;27;19930;-79
2022/05/09 09:59:16;;;;;;;6.63;3.88;;;16.90;99.90;;;;;;5109700;27;20051;-80
2022/05/09 10:02:12;;;;;;;7.03;3.67;;;16.90;99.90;;;;;;5066106;27;20040;-79
2022/05/09 10:04:46;;;;;;;6.78;3.67;;;17.00;99.90;;;;;;5095975;27;20976;-79
2022/05/09 10:07:28;;;;;;;8.13;4.22;;;17.00;99.90;;;;;;5093133;27;20043;-79
2022/05/09 10:10:07;;;;;;;8.23;3.58;;;17.00;99.90;;;;;;5094927;27;20064;-79
2022/05/09 10:12:37;;;;;;;9.90;4.55;;;17.10;99.90;;;;;;5093805;27;20467;-80
2022/05/09 10:15:45;;;;;;;5.50;4.03;;;16.90;99.90;;;;;;5127623;27;20082;-80
2022/05/09 10:24:52;;;;;;;6.97;4.03;;;17.30;99.90;;;;;;5127516;27;20070;-80
2022/05/09 10:27:50;;;;;;;8.18;4.47;;;17.30;99.90;;;;;;5128786;27;20038;-80
2022/05/09 10:31:13;;;;;;;5.90;3.85;;;17.40;99.90;;;;;;5081476;27;20061;-80
2022/05/09 10:33:54;;;;;;;8.65;3.78;;;17.50;99.90;;;;;;5112409;27;20762;-79
2022/05/09 10:36:51;;;;;;;7.03;3.95;;;17.40;99.90;;;;;;5127857;27;20043;-80
2022/05/09 10:39:49;;;;;;;8.95;3.97;;;17.30;99.90;;;;;;5127746;27;20047;-79
2022/05/09 10:42:37;;;;;;;;;;;;;;;;;;;;;
2022/05/09 10:45:50;;;;;;;5.93;3.78;;;17.60;99.90;;;;;;5135638;27;42127;-80
2022/05/09 10:48:42;;;;;;;8.55;4.47;;;17.70;99.90;;;;;;5105213;27;20137;-79
2022/05/09 10:51:54;;;;;;;5.72;3.60;;;17.20;99.90;;;;;;5110157;27;20043;-79
2022/05/09 10:54:29;;;;;;;8.63;3.80;;;17.70;99.90;;;;;;5127554;27;20035;-80
2022/05/09 10:57:39;;;;;;;7.63;3.70;;;17.80;99.90;;;;;;5116508;27;20050;-80
2022/05/09 11:00:20;;;;;;;8.15;4.55;;;17.80;99.90;;;;;;5135510;27;20505;-80
2022/05/09 11:03:12;;;;;;;8.40;4.45;;;17.90;99.90;;;;;;5126901;27;20097;-80
2022/05/09 11:06:18;;;;;;;8.30;4.43;;;17.80;99.90;;;;;;5109431;27;20061;-80
2022/05/09 11:09:26;;;;;;;8.95;4.25;;;18.10;99.90;;;;;;5116644;27;20043;-80
2022/05/09 11:12:16;;;;;;;8.63;5.30;;;18.10;99.90;;;;;;5109146;27;20051;-79
2022/05/09 11:15:13;;;;;;;7.03;4.47;;;17.80;99.90;;;;;;5108423;27;20123;-80
2022/05/09 11:18:22;;;;;;;7.93;4.13;;;18.00;99.90;;;;;;5125705;27;21230;-80
2022/05/09 11:20:51;;;;;;;10.02;4.45;;;18.90;99.90;;;;;;5136378;27;20045;-80
2022/05/09 11:24:11;;;;;;;7.45;3.88;;;18.20;99.90;;;;;;5108019;27;20098;-79
2022/05/09 11:27:06;;;;;;;5.88;3.85;;;18.20;99.90;;;;;;5134301;27;20044;-80
2022/05/09 11:30:03;;;;;;;6.15;4.13;;;18.00;99.90;;;;;;5107403;27;20051;-80
2022/05/09 11:32:51;;;;;;;6.25;3.80;;;18.20;99.90;;;;;;5127037;27;20056;-79
2022/05/09 11:35:44;;;;;;;5.80;3.80;;;18.10;99.90;;;;;;5125034;27;20047;-80
2022/05/09 11:38:34;;;;;;;6.70;3.42;;;18.30;99.90;;;;;;5121179;27;20047;-80
2022/05/09 11:41:39;;;;;;;5.65;4.03;;;18.30;99.90;;;;;;5126542;27;20483;-80
2022/05/09 11:47:46;;;;;;;8.35;3.60;;;18.30;99.90;;;;;;5134476;27;20067;-80
2022/05/09 11:51:01;;;;;;;6.07;4.03;;;18.20;99.90;;;;;;5126643;27;20039;-80
2022/05/09 11:53:57;;;;;;;4.57;3.08;;;17.30;99.90;;;;;;5071153;27;20047;-79
2022/05/09 11:56:49;;;;;;;7.97;3.60;;;18.10;99.90;;;;;;5136525;27;20165;-79
2022/05/09 11:59:37;;;;;;;6.90;3.38;;;18.40;99.90;;;;;;5136108;27;20067;-79
2022/05/09 12:02:36;;;;;;;5.90;3.42;;;18.60;99.90;;;;;;5133140;27;20032;-79
2022/05/09 12:05:39;;;;;;;5.22;3.83;;;18.70;99.90;;;;;;5133720;27;20111;-79
2022/05/09 12:08:30;;;;;;;10.60;4.50;;;18.70;99.90;;;;;;5124957;27;20422;-79
2022/05/09 12:11:54;;;;;;;5.70;3.73;;;18.90;99.90;;;;;;5124303;27;20051;-79
2022/05/09 12:14:57;;;;;;;8.30;4.85;;;18.70;99.90;;;;;;5031205;28;20246;-78
2022/05/09 12:17:40;;;;;;;7.03;3.75;;;18.80;99.90;;;;;;5015507;28;20054;-78
2022/05/09 12:20:34;;;;;;;7.53;3.92;;;18.90;99.90;;;;;;5068831;28;20077;-79
2022/05/09 12:23:15;;;;;;;5.95;3.33;;;19.30;99.90;;;;;;5088677;27;20546;-78
2022/05/09 12:26:05;;;;;;;5.28;3.67;;;19.00;99.90;;;;;;5075762;28;20182;-78
2022/05/09 12:28:46;;;;;;;4.07;3.03;;;18.90;99.90;;;;;;5092590;27;20464;-80
2022/05/09 12:31:42;;;;;;;6.88;3.22;;;18.90;99.90;;;;;;5092334;27;20625;-79
2022/05/09 12:34:27;;;;;;;4.90;2.97;;;19.00;99.90;;;;;;5091425;27;20171;-79
2022/05/09 12:36:58;;;;;;;4.43;2.58;;;19.20;99.90;;;;;;5067604;28;21319;-77
2022/05/09 12:42:36;;;;;;;5.65;3.40;;;19.40;99.90;;;;;;5081563;28;19920;-79
2022/05/09 12:45:07;;;;;;;4.82;2.40;;;19.30;99.90;;;;;;5085339;27;20614;-79
2022/05/09 12:47:40;;;;;;;6.70;2.77;;;19.40;99.90;;;;;;5106240;27;20055;-78
2022/05/09 12:50:28;;;;;;;8.95;3.92;;;19.40;99.90;;;;;;5092832;27;20237;-78
2022/05/09 12:53:30;;;;;;;4.47;3.20;;;19.50;99.90;;;;;;5125658;27;20858;-78
2022/05/09 12:56:01;;;;;;;4.82;3.17;;;19.40;99.90;;;;;;5125313;27;20127;-78
2022/05/09 12:58:51;;;;;;;6.55;3.53;;;19.60;99.90;;;;;;5107207;27;20038;-79
2022/05/09 13:01:27;;;;;;;5.72;3.45;;;19.20;99.90;;;;;;5105786;27;20683;-78
2022/05/09 13:04:17;;;;;;;4.45;2.90;;;19.50;99.90;;;;;;5107806;27;20509;-79
2022/05/09 13:06:55;;;;;;;7.10;2.72;;;19.50;99.90;;;;;;5107730;27;20088;-78
2022/05/09 13:09:48;;;;;;;6.30;3.00;;;19.60;99.90;;;;;;5107689;27;20097;-77
2022/05/09 13:12:51;;;;;;;;;;;;;;;;;;;;;
2022/05/09 13:15:22;;;;;;;10.45;3.40;;;19.80;99.90;;;;;;5123270;27;41586;-78
2022/05/09 13:18:03;;;;;;;4.57;3.30;;;19.90;99.90;;;;;;5108149;27;20188;-79
2022/05/09 13:20:38;;;;;;;6.20;3.08;;;19.90;99.90;;;;;;5090897;27;20054;-78
2022/05/09 13:23:11;;;;;;;7.15;3.55;;;19.90;99.90;;;;;;5062707;28;20641;-78
2022/05/09 13:26:02;;;;;;;4.53;2.58;;;19.90;99.90;;;;;;5048438;28;20056;-78
2022/05/09 13:28:54;;;;;;;7.03;3.13;;;20.00;99.90;;;;;;5048507;28;20580;-79
2022/05/09 13:31:48;;;;;;;;;;;20.10;99.90;;;;;;5024506;28;20059;-79
2022/05/09 13:34:45;;;;;;;6.75;2.80;;;20.10;99.90;;;;;;5065128;28;19924;-79
2022/05/09 13:37:19;;;;;;;8.82;4.57;;;20.30;99.90;;;;;;5033901;28;20049;-79
2022/05/09 13:40:14;;;;;;;8.07;3.63;;;20.20;99.90;;;;;;5066142;28;20041;-78
2022/05/09 13:42:56;;;;;;;6.43;3.20;;;20.20;99.90;;;;;;5049780;28;20098;-78
2022/05/09 13:45:26;;;;;;;;;;;20.20;99.90;;;;;;5048072;28;20728;-79
2022/05/09 13:48:12;;;;;;;6.78;4.22;;;20.30;99.90;;;;;;5055935;28;19973;-78
2022/05/09 13:50:51;;;;;;;5.28;3.70;;;20.30;99.90;;;;;;5054260;28;20190;-79
2022/05/09 13:53:33;;;;;;;4.82;3.40;;;20.50;99.90;;;;;;5048275;28;20939;-79
2022/05/09 13:56:14;;;;;;;7.57;3.67;;;20.60;99.90;;;;;;5048251;28;20132;-78
2022/05/09 13:58:56;;;;;;;5.00;3.42;;;20.60;99.90;;;;;;5063672;28;20049;-79
2022/05/09 14:01:24;;;;;;;8.45;5.55;;;20.50;99.90;;;;;;5117227;27;20599;-78
2022/05/09 14:03:55;;;;;;;7.95;4.75;;;20.70;99.90;;;;;;5108354;27;20046;-78
2022/05/09 14:09:34;;;;;;;5.13;2.80;;;20.80;99.60;;;;;;5127384;27;20075;-78
2022/05/09 14:12:05;;;;;;;6.40;3.08;;;20.80;99.40;;;;;;5129235;27;20040;-79
2022/05/09 14:14:46;;;;;;;5.15;3.70;;;20.90;99.20;;;;;;5106782;27;20052;-78
2022/05/09 14:17:28;;;;;;;5.30;3.37;;;21.00;99.00;;;;;;5093170;27;20545;-78
2022/05/09 14:20:03;;;;;;;4.07;3.15;;;21.10;98.70;;;;;;5109565;27;20058;-78
2022/05/09 14:22:34;;;;;;;5.50;3.22;;;20.40;98.20;;;;;;5107153;27;20836;-78
2022/05/09 14:30:52;;;;;;;3.95;2.67;;;21.40;97.50;;;;;;5129885;27;20047;-78
2022/05/09 14:34:03;;;;;;;3.75;2.83;;;21.40;97.20;;;;;;5122148;27;20648;-78
2022/05/09 14:36:44;;;;;;;8.30;3.17;;;21.50;96.60;;;;;;5127534;27;20047;-78
2022/05/09 14:39:34;;;;;;;9.80;3.65;;;21.50;96.30;;;;;;5123015;27;20054;-78
2022/05/09 14:42:39;;;;;;;3.42;2.63;;;21.40;96.20;;;;;;5144432;27;20039;-79
2022/05/09 14:45:36;;;;;;;4.55;2.80;;;21.40;96.20;;;;;;5119379;27;20039;-79
2022/05/09 14:48:43;;;;;;;6.35;3.20;;;21.30;96.20;;;;;;5129164;27;20043;-79
2022/05/09 14:51:35;;;;;;;5.97;3.90;;;21.30;96.20;;;;;;5142388;27;20539;-79
2022/05/09 14:54:18;;;;;;;5.63;3.92;;;21.30;96.40;;;;;;5131457;27;20036;-78
2022/05/09 15:00:20;;;;;;;3.40;2.40;;;21.40;96.20;;;;;;5129826;27;20036;-80
2022/05/09 15:03:01;;;;;;;4.68;3.33;;;21.70;96.20;;;;;;5122756;27;20534;-79
2022/05/09 15:05:35;;;;;;;6.90;3.55;;;21.50;96.00;;;;;;5118473;27;20071;-78
2022/05/09 15:08:22;;;;;;;6.50;4.45;;;21.50;96.00;;;;;;5122527;27;20094;-79